createdAt,value
2023-05-12T00:01:00.297Z,35.17
2023-05-12T00:03:28.287Z,35.40
2023-05-12T00:06:00.402Z,34.95
2023-05-12T00:08:28.216Z,33.42
2023-05-12T00:10:56.132Z,34.83
2023-05-12T00:13:24.312Z,32.95
2023-05-12T00:15:55.136Z,33.72
2023-05-12T00:18:23.081Z,33.38
2023-05-12T00:20:51.010Z,33.63
2023-05-12T00:23:20.238Z,33.67
2023-05-12T00:25:50.461Z,33.33
2023-05-12T00:28:18.842Z,33.58
2023-05-12T00:30:46.745Z,33.15
2023-05-12T00:33:14.693Z,32.83
2023-05-12T00:35:42.640Z,34.33
2023-05-12T00:38:10.509Z,33.15
2023-05-12T00:40:39.970Z,34.67
2023-05-12T00:43:08.606Z,33.22
2023-05-12T00:45:36.696Z,32.72
2023-05-12T00:48:06.163Z,33.40
2023-05-12T00:50:34.107Z,33.97
2023-05-12T00:53:02.650Z,33.20
2023-05-12T00:55:30.895Z,32.92
2023-05-12T00:58:00.413Z,34.10
2023-05-12T01:00:28.272Z,34.13
2023-05-12T01:02:58.647Z,33.28
2023-05-12T01:05:27.588Z,34.08
2023-05-12T01:07:55.738Z,33.25
2023-05-12T01:10:23.754Z,34.03
2023-05-12T01:12:51.696Z,33.33
2023-05-12T01:15:21.081Z,32.45
2023-05-12T01:17:54.326Z,32.10
2023-05-12T01:20:23.927Z,33.00
2023-05-12T01:22:51.940Z,34.00
2023-05-12T01:25:20.916Z,34.03
2023-05-12T01:27:50.702Z,33.58
2023-05-12T01:30:19.966Z,33.72
2023-05-12T01:32:48.188Z,33.90
2023-05-12T01:35:16.089Z,32.60
2023-05-12T01:37:43.962Z,31.83
2023-05-12T01:40:12.103Z,33.22
2023-05-12T01:42:40.967Z,32.58
2023-05-12T01:45:11.839Z,33.63
2023-05-12T01:47:39.788Z,34.10
2023-05-12T01:50:08.141Z,33.40
2023-05-12T01:52:36.037Z,34.15
2023-05-12T01:55:04.027Z,35.72
2023-05-12T01:57:32.833Z,35.78
2023-05-12T02:00:01.239Z,34.92
2023-05-12T02:02:31.686Z,34.60
2023-05-12T02:04:59.613Z,35.17
2023-05-12T02:07:27.504Z,34.80
2023-05-12T02:09:56.642Z,36.40
2023-05-12T02:12:24.508Z,34.42
2023-05-12T02:14:52.444Z,35.28
2023-05-12T02:17:20.832Z,36.88
2023-05-12T02:19:50.060Z,34.85
2023-05-12T02:22:18.228Z,36.78
2023-05-12T02:24:46.089Z,36.85
2023-05-12T02:27:14.010Z,35.72
2023-05-12T02:29:42.113Z,36.17
2023-05-12T02:32:10.049Z,35.53
2023-05-12T02:34:38.004Z,35.78
2023-05-12T02:37:07.755Z,34.47
2023-05-12T02:39:35.657Z,36.15
2023-05-12T02:42:03.878Z,35.55
2023-05-12T02:44:31.918Z,34.33
2023-05-12T02:46:59.882Z,35.95
2023-05-12T02:49:27.782Z,33.78
2023-05-12T02:51:55.980Z,33.67
2023-05-12T02:54:25.175Z,33.65
2023-05-12T02:56:53.247Z,33.70
2023-05-12T02:59:21.538Z,31.65
2023-05-12T03:01:49.401Z,33.90
2023-05-12T03:04:17.568Z,32.00
2023-05-12T03:06:45.437Z,31.35
2023-05-12T03:09:13.477Z,31.80
2023-05-12T03:11:42.671Z,32.22
2023-05-12T03:14:10.583Z,33.25
2023-05-12T03:16:38.590Z,32.15
2023-05-12T03:19:06.566Z,32.97
2023-05-12T03:21:34.481Z,33.22
2023-05-12T03:24:02.342Z,32.13
2023-05-12T03:26:30.593Z,30.00
2023-05-12T03:28:59.886Z,31.10
2023-05-12T03:31:27.959Z,28.88
2023-05-12T03:33:55.856Z,29.23
2023-05-12T03:36:23.858Z,28.10
2023-05-12T03:38:51.878Z,28.73
2023-05-12T03:41:19.750Z,29.13
2023-05-12T03:43:47.676Z,28.98
2023-05-12T03:46:16.959Z,29.17
2023-05-12T03:48:44.850Z,24.15
2023-05-12T03:51:12.748Z,22.95
2023-05-12T03:53:42.486Z,21.45
2023-05-12T03:56:10.379Z,20.30
2023-05-12T03:58:38.259Z,20.33
2023-05-12T04:01:06.276Z,19.95
2023-05-12T04:03:35.698Z,19.27
2023-05-12T04:06:04.284Z,20.30
2023-05-12T04:08:32.300Z,20.00
2023-05-12T04:11:01.089Z,20.58
2023-05-12T04:13:29.698Z,21.17
2023-05-12T04:15:57.992Z,22.35
2023-05-12T04:18:28.233Z,21.65
2023-05-12T04:20:57.610Z,21.50
2023-05-12T04:23:25.707Z,20.13
2023-05-12T04:25:53.616Z,19.33
2023-05-12T04:28:21.721Z,16.67
2023-05-12T04:30:49.574Z,15.23
2023-05-12T04:33:17.450Z,13.10
2023-05-12T04:35:45.638Z,13.52
2023-05-12T04:38:14.874Z,12.43
2023-05-12T04:40:42.769Z,11.57
2023-05-12T04:44:00.170Z,12.15
2023-05-12T04:46:00.167Z,11.48
2023-05-12T04:48:28.520Z,10.45
2023-05-12T04:50:56.866Z,11.05
2023-05-12T04:53:26.121Z,9.93
2023-05-12T04:55:54.098Z,9.35
2023-05-12T04:58:22.001Z,10.10
2023-05-12T05:00:49.864Z,9.77
2023-05-12T05:03:17.935Z,8.82
2023-05-12T05:05:45.936Z,9.55
2023-05-12T05:08:13.813Z,10.65
2023-05-12T05:10:43.066Z,10.73
2023-05-12T05:13:10.917Z,11.02
2023-05-12T05:15:38.817Z,10.50
2023-05-12T05:18:07.077Z,11.23
2023-05-12T05:20:35.433Z,10.52
2023-05-12T05:23:03.531Z,10.43
2023-05-12T05:25:31.377Z,11.00
2023-05-12T05:28:00.622Z,10.18
2023-05-12T05:30:28.588Z,10.30
2023-05-12T05:32:56.523Z,11.05
2023-05-12T05:35:24.426Z,9.77
2023-05-12T05:37:53.785Z,9.60
2023-05-12T05:40:21.945Z,10.70
2023-05-12T05:42:49.983Z,10.02
2023-05-12T05:45:19.590Z,9.88
2023-05-12T05:47:52.132Z,10.45
2023-05-12T05:50:20.126Z,9.90
2023-05-12T05:52:48.041Z,10.35
2023-05-12T05:55:22.247Z,10.07
2023-05-12T05:57:50.404Z,11.07
2023-05-12T06:00:20.100Z,10.57
2023-05-12T06:02:50.642Z,10.35
2023-05-12T06:05:18.818Z,10.20
2023-05-12T06:07:46.847Z,10.15
2023-05-12T06:10:14.853Z,9.73
2023-05-12T06:12:43.228Z,8.57
2023-05-12T06:15:11.734Z,8.95
2023-05-12T06:17:41.160Z,8.90
2023-05-12T06:20:09.969Z,9.07
2023-05-12T06:22:38.679Z,9.60
2023-05-12T06:25:07.643Z,9.20
2023-05-12T06:27:35.569Z,8.48
2023-05-12T06:30:04.220Z,7.93
2023-05-12T06:32:32.177Z,7.43
2023-05-12T06:35:01.477Z,7.43
2023-05-12T06:37:29.377Z,6.68
2023-05-12T06:39:57.267Z,5.50
2023-05-12T06:42:25.173Z,5.18
2023-05-12T06:44:53.156Z,5.10
2023-05-12T06:47:21.163Z,5.15
2023-05-12T06:49:50.058Z,4.25
2023-05-12T06:52:20.580Z,4.50
2023-05-12T06:54:48.501Z,5.00
2023-05-12T06:57:16.374Z,4.43
2023-05-12T06:59:44.271Z,4.78
2023-05-12T07:02:12.160Z,4.90
2023-05-12T07:04:40.029Z,5.60
2023-05-12T07:07:07.964Z,5.10
2023-05-12T07:09:37.459Z,5.43
2023-05-12T07:12:06.023Z,5.25
2023-05-12T07:14:36.068Z,5.30
2023-05-12T07:17:08.376Z,5.88
2023-05-12T07:19:36.608Z,6.07
2023-05-12T07:22:04.797Z,5.35
2023-05-12T07:24:32.829Z,5.63
2023-05-12T07:27:02.688Z,5.38
2023-05-12T07:29:30.635Z,6.00
2023-05-12T07:31:58.689Z,5.70
2023-05-12T07:34:26.569Z,6.20
2023-05-12T07:36:54.479Z,5.88
2023-05-12T07:39:23.934Z,6.55
2023-05-12T07:41:53.539Z,6.43
2023-05-12T07:44:22.779Z,6.25
2023-05-12T07:46:54.374Z,6.35
2023-05-12T07:49:23.298Z,5.82
2023-05-12T07:51:51.392Z,6.28
2023-05-12T07:54:19.239Z,5.85
2023-05-12T07:56:47.257Z,5.65
2023-05-12T07:59:15.381Z,5.32
2023-05-12T08:01:46.132Z,5.78
2023-05-12T08:04:14.327Z,6.25
2023-05-12T08:06:42.392Z,5.63
2023-05-12T08:09:10.356Z,5.55
2023-05-12T08:11:38.213Z,5.55
2023-05-12T08:14:06.157Z,6.50
2023-05-12T08:16:34.082Z,7.18
2023-05-12T08:19:03.377Z,7.15
2023-05-12T08:21:34.762Z,7.90
2023-05-12T08:24:02.725Z,7.95
2023-05-12T08:26:31.437Z,9.88
2023-05-12T08:28:59.331Z,11.00
2023-05-12T08:31:27.347Z,16.38
2023-05-12T08:36:28.817Z,16.67
2023-05-12T08:38:56.787Z,17.65
2023-05-12T08:41:33.289Z,16.75
2023-05-12T08:44:01.368Z,14.25
2023-05-12T08:46:29.460Z,14.10
2023-05-12T08:48:58.967Z,13.30
2023-05-12T08:51:29.446Z,13.07
2023-05-12T08:53:57.964Z,15.38
2023-05-12T08:58:58.006Z,14.93
2023-05-12T09:01:26.175Z,16.45
2023-05-12T09:03:54.213Z,16.65
2023-05-12T09:06:22.252Z,15.82
2023-05-12T09:08:51.892Z,13.25
2023-05-12T09:11:21.901Z,13.32
2023-05-12T09:13:56.105Z,9.18
2023-05-12T09:16:25.633Z,7.70
2023-05-12T09:18:55.047Z,7.28
2023-05-12T09:21:23.349Z,6.63
2023-05-12T09:23:57.112Z,7.00
2023-05-12T09:26:25.902Z,6.25
2023-05-12T09:28:55.065Z,5.95
2023-05-12T09:31:23.838Z,5.65
2023-05-12T09:33:53.076Z,5.60
2023-05-12T09:36:21.602Z,4.68
2023-05-12T09:39:04.501Z,4.78
2023-05-12T09:41:32.479Z,5.18
2023-05-12T09:44:01.272Z,5.38
2023-05-12T09:46:29.223Z,4.53
2023-05-12T09:48:57.920Z,4.38
2023-05-12T09:51:27.310Z,4.22
2023-05-12T09:53:55.191Z,4.43
2023-05-12T09:56:25.763Z,4.15
2023-05-12T09:58:54.882Z,4.28
2023-05-12T10:01:23.887Z,4.10
2023-05-12T10:03:54.763Z,4.47
2023-05-12T10:06:26.979Z,4.75
2023-05-12T10:09:01.415Z,3.90
2023-05-12T10:11:31.122Z,3.90
2023-05-12T10:13:59.164Z,3.72
2023-05-12T10:16:28.515Z,4.53
2023-05-12T10:18:57.175Z,4.32
2023-05-12T10:21:26.517Z,4.70
2023-05-12T10:23:55.475Z,4.18
2023-05-12T10:26:23.458Z,3.75
2023-05-12T10:28:53.269Z,3.10
2023-05-12T10:31:22.386Z,3.10
2023-05-12T10:33:58.034Z,3.00
2023-05-12T10:36:26.581Z,3.10
2023-05-12T10:38:54.792Z,2.97
2023-05-12T10:41:31.975Z,2.97
2023-05-12T10:44:01.826Z,2.72
2023-05-12T10:46:30.585Z,3.20
2023-05-12T10:49:00.981Z,2.90
2023-05-12T10:51:30.319Z,3.05
2023-05-12T10:53:59.836Z,3.95
2023-05-12T10:56:29.890Z,3.70
2023-05-12T10:59:10.249Z,4.55
2023-05-12T11:01:39.324Z,3.75
2023-05-12T11:04:14.596Z,3.70
2023-05-12T11:06:44.749Z,3.72
2023-05-12T11:09:13.822Z,3.10
2023-05-12T11:11:45.715Z,3.25
2023-05-12T11:14:15.776Z,2.83
2023-05-12T11:16:44.434Z,4.20
2023-05-12T11:19:12.843Z,3.15
2023-05-12T11:21:41.150Z,3.35
2023-05-12T11:24:13.348Z,3.40
2023-05-12T11:26:41.672Z,3.55
2023-05-12T11:29:09.865Z,4.10
2023-05-12T11:31:39.660Z,3.35
2023-05-12T11:34:13.139Z,4.40
2023-05-12T11:36:43.854Z,7.30
2023-05-12T11:39:15.310Z,6.72
2023-05-12T11:41:43.245Z,5.63
2023-05-12T11:44:15.724Z,5.20
2023-05-12T11:46:55.499Z,5.15
2023-05-12T11:49:23.578Z,4.95
2023-05-12T11:51:53.136Z,5.55
2023-05-12T11:54:21.429Z,5.60
2023-05-12T11:56:50.167Z,6.00
2023-05-12T11:59:29.687Z,5.63
2023-05-12T12:01:59.952Z,4.25
2023-05-12T12:04:35.245Z,5.03
2023-05-12T12:07:03.565Z,5.05
2023-05-12T12:09:32.838Z,5.05
2023-05-12T12:12:01.037Z,5.13
2023-05-12T12:14:29.053Z,5.20
2023-05-12T12:16:56.908Z,4.65
2023-05-12T12:19:27.735Z,4.07
2023-05-12T12:21:57.259Z,3.75
2023-05-12T12:24:25.324Z,4.60
2023-05-12T12:26:53.430Z,3.63
2023-05-12T12:29:23.814Z,4.07
2023-05-12T12:31:51.986Z,3.92
2023-05-12T12:34:20.343Z,4.00
2023-05-12T12:36:49.719Z,4.28
2023-05-12T12:39:19.793Z,4.05
2023-05-12T12:41:48.229Z,4.75
2023-05-12T12:44:16.558Z,4.28
2023-05-12T12:46:44.574Z,4.00
2023-05-12T12:49:12.590Z,4.30
2023-05-12T12:51:46.358Z,4.60
2023-05-12T12:54:16.317Z,4.60
2023-05-12T12:56:45.086Z,4.80
2023-05-12T12:59:12.997Z,4.43
2023-05-12T13:01:40.884Z,4.38
2023-05-12T13:04:08.751Z,3.75
2023-05-12T13:06:36.655Z,3.88
2023-05-12T13:09:05.183Z,3.40
2023-05-12T13:11:34.418Z,3.70
2023-05-12T13:14:04.313Z,3.50
2023-05-12T13:16:32.391Z,2.45
2023-05-12T13:19:00.494Z,2.67
2023-05-12T13:21:28.945Z,2.90
2023-05-12T13:23:58.604Z,2.30
2023-05-12T13:26:26.712Z,2.58
2023-05-12T13:28:55.954Z,2.47
2023-05-12T13:31:23.909Z,2.45
2023-05-12T13:33:51.916Z,2.60
2023-05-12T13:36:19.811Z,2.40
2023-05-12T13:38:47.868Z,2.95
2023-05-12T13:41:16.348Z,2.40
2023-05-12T13:43:44.980Z,2.42
2023-05-12T13:46:14.327Z,2.45
2023-05-12T13:48:42.641Z,2.30
2023-05-12T13:51:10.510Z,2.72
2023-05-12T13:53:39.632Z,2.63
2023-05-12T13:56:08.547Z,2.47
2023-05-12T13:58:36.552Z,2.50
2023-05-12T14:01:05.316Z,2.40
2023-05-12T14:03:37.102Z,2.25
2023-05-12T14:06:08.141Z,2.45
2023-05-12T14:08:36.395Z,2.50
2023-05-12T14:11:07.339Z,2.33
2023-05-12T14:13:37.614Z,1.60
2023-05-12T14:16:08.609Z,1.50
2023-05-12T14:18:38.209Z,1.35
2023-05-12T14:21:09.414Z,1.67
2023-05-12T14:23:37.825Z,1.15
2023-05-12T14:26:05.885Z,1.52
2023-05-12T14:28:34.776Z,1.30
2023-05-12T14:31:05.186Z,1.73
2023-05-12T14:33:35.379Z,1.90
2023-05-12T14:36:08.074Z,1.50
2023-05-12T14:38:39.423Z,1.60
2023-05-12T14:41:08.493Z,1.48
2023-05-12T14:43:36.645Z,1.95
2023-05-12T14:46:06.229Z,2.08
2023-05-12T14:48:36.645Z,1.80
2023-05-12T14:51:09.237Z,2.15
2023-05-12T14:53:37.236Z,1.80
2023-05-12T14:56:06.577Z,2.00
2023-05-12T14:58:34.627Z,1.60
2023-05-12T15:01:06.355Z,2.15
2023-05-12T15:03:36.039Z,2.05
2023-05-12T15:06:07.085Z,1.70
2023-05-12T15:08:39.221Z,1.85
2023-05-12T15:11:07.103Z,1.90
2023-05-12T15:13:35.071Z,1.80
2023-05-12T15:16:08.185Z,1.70
2023-05-12T15:18:36.349Z,1.58
2023-05-12T15:21:04.443Z,1.85
2023-05-12T15:23:32.328Z,2.03
2023-05-12T15:26:15.546Z,1.90
2023-05-12T15:28:54.593Z,1.65
2023-05-12T15:31:22.420Z,1.90
2023-05-12T15:33:50.349Z,1.60
2023-05-12T15:36:18.568Z,1.90
2023-05-12T15:38:47.286Z,1.73
2023-05-12T15:41:16.471Z,1.63
2023-05-12T15:43:44.332Z,1.88
2023-05-12T15:46:12.384Z,1.88
2023-05-12T15:48:40.357Z,2.00
2023-05-12T15:51:08.187Z,2.05
2023-05-12T15:53:36.291Z,1.92
2023-05-12T15:56:05.280Z,1.98
2023-05-12T15:58:34.942Z,1.92
2023-05-12T16:01:02.813Z,1.90
2023-05-12T16:03:30.844Z,2.13
2023-05-12T16:05:58.843Z,1.75
2023-05-12T16:08:28.071Z,2.40
2023-05-12T16:10:56.109Z,2.08
2023-05-12T16:13:24.064Z,2.13
2023-05-12T16:15:53.364Z,2.05
2023-05-12T16:18:21.320Z,2.10
2023-05-12T16:20:49.758Z,2.15
2023-05-12T16:23:17.707Z,2.08
2023-05-12T16:25:46.107Z,2.10
2023-05-12T16:28:14.619Z,2.13
2023-05-12T16:30:42.497Z,2.72
2023-05-12T16:33:11.815Z,2.90
2023-05-12T16:35:40.048Z,2.97
2023-05-12T16:38:08.272Z,3.78
2023-05-12T16:40:36.186Z,3.30
2023-05-12T16:43:04.076Z,2.97
2023-05-12T16:45:32.493Z,3.20
2023-05-12T16:48:00.420Z,3.45
2023-05-12T16:50:29.717Z,2.92
2023-05-12T16:52:57.657Z,3.78
2023-05-12T16:55:25.803Z,3.35
2023-05-12T16:57:56.693Z,3.75
2023-05-12T17:00:24.679Z,3.13
2023-05-12T17:02:53.329Z,3.22
2023-05-12T17:05:21.793Z,3.72
2023-05-12T17:07:51.328Z,3.45
2023-05-12T17:10:19.223Z,3.70
2023-05-12T17:12:47.164Z,3.50
2023-05-12T17:15:15.550Z,4.20
2023-05-12T17:17:43.620Z,3.40
2023-05-12T17:20:12.703Z,3.92
2023-05-12T17:22:44.264Z,3.75
2023-05-12T17:25:13.789Z,3.80
2023-05-12T17:27:41.781Z,3.45
2023-05-12T17:30:10.593Z,3.40
2023-05-12T17:32:38.850Z,3.70
2023-05-12T17:35:08.096Z,3.55
2023-05-12T17:37:36.159Z,3.72
2023-05-12T17:40:05.211Z,3.83
2023-05-12T17:42:38.128Z,3.38
2023-05-12T17:45:06.980Z,3.72
2023-05-12T17:47:34.924Z,3.45
2023-05-12T17:50:02.920Z,3.45
2023-05-12T17:52:31.177Z,3.20
2023-05-12T17:54:59.036Z,3.42
2023-05-12T17:57:27.113Z,3.80
2023-05-12T17:59:56.552Z,3.30
2023-05-12T18:02:24.609Z,3.38
2023-05-12T18:04:52.609Z,3.38
2023-05-12T18:07:23.546Z,3.72
2023-05-12T18:09:51.836Z,3.33
2023-05-12T18:12:19.810Z,3.83
2023-05-12T18:14:47.771Z,4.00
2023-05-12T18:17:17.252Z,3.55
2023-05-12T18:19:46.465Z,3.60
2023-05-12T18:22:16.834Z,3.85
2023-05-12T18:24:44.763Z,3.72
2023-05-12T18:27:13.012Z,4.28
2023-05-12T18:29:42.203Z,3.83
2023-05-12T18:32:10.306Z,4.10
2023-05-12T18:34:44.173Z,3.92
2023-05-12T18:37:15.552Z,3.70
2023-05-12T18:39:43.732Z,3.80
2023-05-12T18:42:12.096Z,4.10
2023-05-12T18:44:42.290Z,3.90
2023-05-12T18:47:10.211Z,4.13
2023-05-12T18:49:39.435Z,4.57
2023-05-12T18:52:07.464Z,4.35
2023-05-12T18:54:35.385Z,4.18
2023-05-12T18:57:05.740Z,4.32
2023-05-12T18:59:33.755Z,4.25
2023-05-12T19:02:01.863Z,5.07
2023-05-12T19:04:29.842Z,4.35
2023-05-12T19:06:59.182Z,4.70
2023-05-12T19:09:27.109Z,4.38
2023-05-12T19:11:55.032Z,4.78
2023-05-12T19:14:23.033Z,4.80
2023-05-12T19:16:50.957Z,4.93
2023-05-12T19:19:18.829Z,5.30
2023-05-12T19:21:46.880Z,5.68
2023-05-12T19:24:16.160Z,5.15
2023-05-12T19:26:44.000Z,5.00
2023-05-12T19:29:12.130Z,5.88
2023-05-12T19:31:40.112Z,5.30
2023-05-12T19:34:11.113Z,5.65
2023-05-12T19:36:41.474Z,5.57
2023-05-12T19:39:09.361Z,5.40
2023-05-12T19:41:41.193Z,5.35
2023-05-12T19:44:09.350Z,4.88
2023-05-12T19:46:40.140Z,4.95
2023-05-12T19:49:07.996Z,4.97
2023-05-12T19:51:35.897Z,4.72
2023-05-12T19:54:06.401Z,4.72
2023-05-12T19:56:34.372Z,5.40
2023-05-12T19:59:06.950Z,5.10
2023-05-12T20:01:35.050Z,4.93
2023-05-12T20:04:06.193Z,5.20
2023-05-12T20:06:36.315Z,4.35
2023-05-12T20:09:08.953Z,4.45
2023-05-12T20:11:37.017Z,4.47
2023-05-12T20:14:06.270Z,4.40
2023-05-12T20:16:38.235Z,4.65
2023-05-12T20:19:06.742Z,5.35
2023-05-12T20:21:34.696Z,5.05
2023-05-12T20:24:02.546Z,5.25
2023-05-12T20:26:30.799Z,4.60
2023-05-12T20:28:59.544Z,4.65
2023-05-12T20:31:28.920Z,4.88
2023-05-12T20:33:57.465Z,5.18
2023-05-12T20:36:25.486Z,5.30
2023-05-12T20:38:53.367Z,4.97
2023-05-12T20:41:21.299Z,4.35
2023-05-12T20:43:51.394Z,4.35
2023-05-12T20:46:19.674Z,4.60
2023-05-12T20:48:49.169Z,4.53
2023-05-12T20:51:17.042Z,3.88
2023-05-12T20:53:44.939Z,3.72
2023-05-12T20:56:13.153Z,3.63
2023-05-12T20:58:41.092Z,3.90
2023-05-12T21:01:09.134Z,4.38
2023-05-12T21:03:37.219Z,3.75
2023-05-12T21:06:07.504Z,4.20
2023-05-12T21:08:35.421Z,3.83
2023-05-12T21:11:03.353Z,4.15
2023-05-12T21:13:31.350Z,3.65
2023-05-12T21:15:59.376Z,3.95
2023-05-12T21:18:27.330Z,3.90
2023-05-12T21:20:55.220Z,3.70
2023-05-12T21:23:24.498Z,3.58
2023-05-12T21:25:53.784Z,4.22
2023-05-12T21:28:22.085Z,4.10
2023-05-12T21:30:50.012Z,3.72
2023-05-12T21:33:18.130Z,4.32
2023-05-12T21:35:46.040Z,3.92
2023-05-12T21:38:13.947Z,4.20
2023-05-12T21:40:43.263Z,4.10
2023-05-12T21:43:11.180Z,3.95
2023-05-12T21:45:39.071Z,4.13
2023-05-12T21:48:07.402Z,4.47
2023-05-12T21:50:35.469Z,3.97
2023-05-12T21:53:03.334Z,4.32
2023-05-12T21:55:31.236Z,4.20
2023-05-12T21:58:00.468Z,4.25
2023-05-12T22:00:28.486Z,4.18
2023-05-12T22:02:56.576Z,4.45
2023-05-12T22:05:24.764Z,4.50
2023-05-12T22:07:52.664Z,4.05
2023-05-12T22:10:21.024Z,4.70
2023-05-12T22:12:49.040Z,4.93
2023-05-12T22:15:18.686Z,4.78
2023-05-12T22:17:47.717Z,5.05
2023-05-12T22:20:16.651Z,5.15
2023-05-12T22:22:44.616Z,4.72
2023-05-12T22:25:12.573Z,5.13
2023-05-12T22:27:40.455Z,5.30
2023-05-12T22:30:10.159Z,5.07
2023-05-12T22:32:39.455Z,4.68
2023-05-12T22:35:08.589Z,4.80
2023-05-12T22:37:36.502Z,5.00
2023-05-12T22:40:04.932Z,5.82
2023-05-12T22:42:32.901Z,5.50
2023-05-12T22:45:01.005Z,5.95
2023-05-12T22:47:28.923Z,5.40
2023-05-12T22:49:58.207Z,5.53
2023-05-12T22:52:26.097Z,5.10
2023-05-12T22:54:54.701Z,5.63
2023-05-12T22:57:22.999Z,5.40
2023-05-12T22:59:50.907Z,5.40
2023-05-12T23:02:18.759Z,5.93
2023-05-12T23:04:46.691Z,5.53
2023-05-12T23:07:15.872Z,5.38
2023-05-12T23:09:43.753Z,5.90
2023-05-12T23:12:11.746Z,5.38
2023-05-12T23:14:42.127Z,6.00
2023-05-12T23:17:10.498Z,6.28
2023-05-12T23:19:40.130Z,5.88
2023-05-12T23:22:10.505Z,5.82
2023-05-12T23:24:39.749Z,5.80
2023-05-12T23:27:07.948Z,5.47
2023-05-12T23:29:35.866Z,5.60
2023-05-12T23:32:04.056Z,6.47
2023-05-12T23:34:32.079Z,5.90
2023-05-12T23:36:59.931Z,7.32
2023-05-12T23:39:27.965Z,5.88
2023-05-12T23:41:57.310Z,6.75
2023-05-12T23:44:25.293Z,6.68
2023-05-12T23:46:53.181Z,6.70
2023-05-12T23:49:21.072Z,6.50
2023-05-12T23:51:48.990Z,6.45
2023-05-12T23:54:16.929Z,7.03
2023-05-12T23:56:44.782Z,7.00
2023-05-12T23:59:14.014Z,6.93
